sensor_id;sensor_type;location;lat;lon;timestamp;pressure;altitude;pressure_sealevel;temperature;humidity
64243;BME280;50573;51.512;5.386;2023-12-20T00:02:58;166362.31;;;6.88;100.00
64243;BME280;50573;51.512;5.386;2023-12-20T00:13:01;166304.13;;;6.66;100.00
64243;BME280;50573;51.512;5.386;2023-12-20T00:23:05;166224.84;;;6.36;100.00
64243;BME280;50573;51.512;5.386;2023-12-20T00:33:09;166215.59;;;6.33;100.00
64243;BME280;50573;51.512;5.386;2023-12-20T00:43:13;166207.66;;;6.30;100.00
64243;BME280;50573;51.512;5.386;2023-12-20T00:53:16;166256.59;;;6.48;100.00
64243;BME280;50573;51.512;5.386;2023-12-20T01:03:21;166152.16;;;6.09;100.00
64243;BME280;50573;51.512;5.386;2023-12-20T01:13:25;166146.88;;;6.07;100.00
64243;BME280;50573;51.512;5.386;2023-12-20T01:23:29;166177.25;;;6.18;100.00
64243;BME280;50573;51.512;5.386;2023-12-20T01:33:32;166199.75;;;6.27;100.00
64243;BME280;50573;51.512;5.386;2023-12-20T01:43:36;166230.16;;;6.38;100.00
64243;BME280;50573;51.512;5.386;2023-12-20T01:53:51;166166.72;;;6.14;100.00
64243;BME280;50573;51.512;5.386;2023-12-20T02:03:56;166116.47;;;5.95;100.00
64243;BME280;50573;51.512;5.386;2023-12-20T02:13:59;166058.31;;;5.73;100.00
64243;BME280;50573;51.512;5.386;2023-12-20T02:24:04;166247.31;;;6.45;100.00
64243;BME280;50573;51.512;5.386;2023-12-20T02:34:07;166244.66;;;6.44;100.00
64243;BME280;50573;51.512;5.386;2023-12-20T02:44:11;166236.72;;;6.41;100.00
64243;BME280;50573;51.512;5.386;2023-12-20T02:54:14;166252.56;;;6.47;100.00
64243;BME280;50573;51.512;5.386;2023-12-20T03:04:18;166244.66;;;6.44;100.00
64243;BME280;50573;51.512;5.386;2023-12-20T03:14:21;166249.94;;;6.46;100.00
64243;BME280;50573;51.512;5.386;2023-12-20T03:24:26;166214.25;;;6.32;100.00
64243;BME280;50573;51.512;5.386;2023-12-20T03:34:29;166220.88;;;6.35;100.00
64243;BME280;50573;51.512;5.386;2023-12-20T03:44:33;166296.19;;;6.63;100.00
64243;BME280;50573;51.512;5.386;2023-12-20T03:54:36;166329.28;;;6.76;100.00
64243;BME280;50573;51.512;5.386;2023-12-20T04:04:40;166398.00;;;7.02;100.00
64243;BME280;50573;51.512;5.386;2023-12-20T04:14:44;166437.66;;;7.17;100.00
64243;BME280;50573;51.512;5.386;2023-12-20T04:24:48;166437.66;;;7.17;100.00
64243;BME280;50573;51.512;5.386;2023-12-20T04:34:51;166472.03;;;7.30;100.00
64243;BME280;50573;51.512;5.386;2023-12-20T04:44:55;166458.81;;;7.25;100.00
64243;BME280;50573;51.512;5.386;2023-12-20T04:54:58;166493.22;;;7.38;100.00
64243;BME280;50573;51.512;5.386;2023-12-20T05:05:03;166503.81;;;7.42;100.00
64243;BME280;50573;51.512;5.386;2023-12-20T05:15:07;166528.94;;;7.52;100.00
64243;BME280;50573;51.512;5.386;2023-12-20T05:25:11;166503.81;;;7.42;100.00
64243;BME280;50573;51.512;5.386;2023-12-20T05:35:14;166511.75;;;7.45;100.00
64243;BME280;50573;51.512;5.386;2023-12-20T05:45:19;166470.72;;;7.30;100.00
64243;BME280;50573;51.512;5.386;2023-12-20T05:55:22;166395.34;;;7.01;100.00
64243;BME280;50573;51.512;5.386;2023-12-20T06:05:26;166354.41;;;6.85;100.00
64243;BME280;50573;51.512;5.386;2023-12-20T06:15:30;166326.63;;;6.75;100.00
64243;BME280;50573;51.512;5.386;2023-12-20T06:25:34;166281.69;;;6.58;100.00
64243;BME280;50573;51.512;5.386;2023-12-20T06:35:37;166265.78;;;6.52;100.00
64243;BME280;50573;51.512;5.386;2023-12-20T06:45:42;166257.88;;;6.49;100.00
64243;BME280;50573;51.512;5.386;2023-12-20T06:55:45;166313.38;;;6.70;100.00
64243;BME280;50573;51.512;5.386;2023-12-20T07:05:49;166330.56;;;6.76;100.00
64243;BME280;50573;51.512;5.386;2023-12-20T07:15:52;166325.28;;;6.74;100.00
64243;BME280;50573;51.512;5.386;2023-12-20T07:25:56;166355.69;;;6.86;100.00
64243;BME280;50573;51.512;5.386;2023-12-20T07:35:59;166370.25;;;6.91;100.00
64243;BME280;50573;51.512;5.386;2023-12-20T07:46:08;166403.28;;;7.04;100.00
64243;BME280;50573;51.512;5.386;2023-12-20T07:56:15;166379.50;;;6.95;100.00
64243;BME280;50573;51.512;5.386;2023-12-20T08:06:19;166368.91;;;6.91;100.00
64243;BME280;50573;51.512;5.386;2023-12-20T08:16:22;166409.94;;;7.07;100.00
64243;BME280;50573;51.512;5.386;2023-12-20T08:26:26;166437.66;;;7.17;100.00
64243;BME280;50573;51.512;5.386;2023-12-20T08:36:29;166498.50;;;7.40;100.00
64243;BME280;50573;51.512;5.386;2023-12-20T08:46:34;166581.81;;;7.72;100.00
64243;BME280;50573;51.512;5.386;2023-12-20T08:56:37;166587.09;;;7.74;100.00
64243;BME280;50573;51.512;5.386;2023-12-20T09:06:41;166641.34;;;7.94;100.00
64243;BME280;50573;51.512;5.386;2023-12-20T09:16:44;166624.13;;;7.88;100.00
64243;BME280;50573;51.512;5.386;2023-12-20T09:26:48;166514.38;;;7.46;100.00
64243;BME280;50573;51.512;5.386;2023-12-20T09:36:51;166585.78;;;7.73;100.00
64243;BME280;50573;51.512;5.386;2023-12-20T09:46:56;166661.22;;;8.02;100.00
64243;BME280;50573;51.512;5.386;2023-12-20T09:57:00;166663.84;;;8.03;100.00
64243;BME280;50573;51.512;5.386;2023-12-20T10:07:05;166690.31;;;8.13;100.00
64243;BME280;50573;51.512;5.386;2023-12-20T10:17:08;166728.72;;;8.27;100.00
64243;BME280;50573;51.512;5.386;2023-12-20T10:27:13;166759.19;;;8.39;100.00
64243;BME280;50573;51.512;5.386;2023-12-20T10:37:16;166794.94;;;8.53;100.00
64243;BME280;50573;51.512;5.386;2023-12-20T10:47:20;166786.94;;;8.50;100.00
64243;BME280;50573;51.512;5.386;2023-12-20T10:57:26;166824.03;;;8.64;100.00
64243;BME280;50573;51.512;5.386;2023-12-20T11:07:35;166821.34;;;8.63;100.00
64243;BME280;50573;51.512;5.386;2023-12-20T11:17:39;166817.38;;;8.61;100.00
64243;BME280;50573;51.512;5.386;2023-12-20T11:28:07;166796.22;;;8.53;100.00
64243;BME280;50573;51.512;5.386;2023-12-20T11:38:12;166796.22;;;8.53;100.00
64243;BME280;50573;51.512;5.386;2023-12-20T11:48:18;166755.22;;;8.37;100.00
64243;BME280;50573;51.512;5.386;2023-12-20T11:58:21;166802.88;;;8.56;100.00
64243;BME280;50573;51.512;5.386;2023-12-20T12:08:26;166789.63;;;8.51;100.00
64243;BME280;50573;51.512;5.386;2023-12-20T12:18:29;166749.91;;;8.35;100.00
64243;BME280;50573;51.512;5.386;2023-12-20T12:28:34;166763.16;;;8.40;100.00
64243;BME280;50573;51.512;5.386;2023-12-20T12:38:37;166800.19;;;8.55;100.00
64243;BME280;50573;51.512;5.386;2023-12-20T12:48:42;166896.84;;;8.91;100.00
64243;BME280;50573;51.512;5.386;2023-12-20T12:58:48;166830.63;;;8.66;100.00
64243;BME280;50573;51.512;5.386;2023-12-20T13:08:52;166845.22;;;8.72;100.00
64243;BME280;50573;51.512;5.386;2023-12-20T13:18:56;166826.66;;;8.65;100.00
64243;BME280;50573;51.512;5.386;2023-12-20T13:29:03;166784.31;;;8.49;100.00
64243;BME280;50573;51.512;5.386;2023-12-20T13:39:06;166805.50;;;8.57;100.00
64243;BME280;50573;51.512;5.386;2023-12-20T13:49:10;166829.28;;;8.66;100.00
64243;BME280;50573;51.512;5.386;2023-12-20T13:59:14;166809.47;;;8.58;100.00
64243;BME280;50573;51.512;5.386;2023-12-20T14:09:19;166915.34;;;8.98;100.00
64243;BME280;50573;51.512;5.386;2023-12-20T14:19:22;166880.91;;;8.85;100.00
64243;BME280;50573;51.512;5.386;2023-12-20T14:29:27;166886.22;;;8.87;100.00
64243;BME280;50573;51.512;5.386;2023-12-20T14:39:30;166892.88;;;8.90;100.00
64243;BME280;50573;51.512;5.386;2023-12-20T14:49:34;166892.88;;;8.90;100.00
64243;BME280;50573;51.512;5.386;2023-12-20T14:59:39;166854.47;;;8.75;100.00
64243;BME280;50573;51.512;5.386;2023-12-20T15:09:43;166908.75;;;8.96;100.00
64243;BME280;50573;51.512;5.386;2023-12-20T15:19:48;166853.16;;;8.75;100.00
64243;BME280;50573;51.512;5.386;2023-12-20T15:29:52;166849.19;;;8.73;100.00
64243;BME280;50573;51.512;5.386;2023-12-20T15:39:56;166880.91;;;8.85;100.00
64243;BME280;50573;51.512;5.386;2023-12-20T15:50:00;166888.91;;;8.88;100.00
64243;BME280;50573;51.512;5.386;2023-12-20T16:00:05;166908.75;;;8.96;100.00
64243;BME280;50573;51.512;5.386;2023-12-20T16:10:11;166910.09;;;8.96;100.00
64243;BME280;50573;51.512;5.386;2023-12-20T16:20:14;166865.06;;;8.79;100.00
64243;BME280;50573;51.512;5.386;2023-12-20T16:30:19;166859.75;;;8.77;100.00
64243;BME280;50573;51.512;5.386;2023-12-20T16:40:22;166845.22;;;8.72;100.00
64243;BME280;50573;51.512;5.386;2023-12-20T16:50:27;166886.22;;;8.87;100.00
64243;BME280;50573;51.512;5.386;2023-12-20T17:00:30;166876.94;;;8.84;100.00
64243;BME280;50573;51.512;5.386;2023-12-20T17:10:35;166866.38;;;8.80;100.00
64243;BME280;50573;51.512;5.386;2023-12-20T17:20:38;166833.31;;;8.67;100.00
64243;BME280;50573;51.512;5.386;2023-12-20T17:30:43;166865.06;;;8.79;100.00
64243;BME280;50573;51.512;5.386;2023-12-20T17:40:48;166853.16;;;8.75;100.00
64243;BME280;50573;51.512;5.386;2023-12-20T17:50:53;166839.91;;;8.70;100.00
64243;BME280;50573;51.512;5.386;2023-12-20T18:00:55;166874.31;;;8.83;100.00
64243;BME280;50573;51.512;5.386;2023-12-20T18:11:00;166862.41;;;8.78;100.00
64243;BME280;50573;51.512;5.386;2023-12-20T18:21:03;166888.91;;;8.88;100.00
64243;BME280;50573;51.512;5.386;2023-12-20T18:31:08;166870.34;;;8.81;100.00
64243;BME280;50573;51.512;5.386;2023-12-20T18:41:11;166923.31;;;9.01;100.00
64243;BME280;50573;51.512;5.386;2023-12-20T18:51:17;166961.72;;;9.16;100.00
64243;BME280;50573;51.512;5.386;2023-12-20T19:01:20;166970.94;;;9.19;100.00
64243;BME280;50573;51.512;5.386;2023-12-20T19:11:24;166993.47;;;9.28;100.00
64243;BME280;50573;51.512;5.386;2023-12-20T19:21:27;166969.66;;;9.19;100.00
64243;BME280;50573;51.512;5.386;2023-12-20T19:31:32;166968.31;;;9.18;100.00
64243;BME280;50573;51.512;5.386;2023-12-20T19:41:35;166978.94;;;9.22;100.00
64243;BME280;50573;51.512;5.386;2023-12-20T19:51:39;166982.91;;;9.24;100.00
64243;BME280;50573;51.512;5.386;2023-12-20T20:01:42;167057.03;;;9.52;100.00
64243;BME280;50573;51.512;5.386;2023-12-20T20:11:48;167076.94;;;9.59;100.00
64243;BME280;50573;51.512;5.386;2023-12-20T20:21:51;167102.09;;;9.69;100.00
64243;BME280;50573;51.512;5.386;2023-12-20T20:31:55;167071.63;;;9.57;100.00
64243;BME280;50573;51.512;5.386;2023-12-20T20:41:58;167110.03;;;9.72;100.00
64243;BME280;50573;51.512;5.386;2023-12-20T20:52:03;167137.81;;;9.82;100.00
64243;BME280;50573;51.512;5.386;2023-12-20T21:02:07;167096.78;;;9.67;100.00
64243;BME280;50573;51.512;5.386;2023-12-20T21:12:11;167067.66;;;9.56;100.00
64243;BME280;50573;51.512;5.386;2023-12-20T21:22:14;167057.03;;;9.52;100.00
64243;BME280;50573;51.512;5.386;2023-12-20T21:32:19;167023.94;;;9.39;100.00
64243;BME280;50573;51.512;5.386;2023-12-20T21:42:23;167018.63;;;9.37;100.00
64243;BME280;50573;51.512;5.386;2023-12-20T21:52:28;167030.53;;;9.42;100.00
64243;BME280;50573;51.512;5.386;2023-12-20T22:02:32;167051.72;;;9.50;100.00
64243;BME280;50573;51.512;5.386;2023-12-20T22:12:36;167017.34;;;9.37;100.00
64243;BME280;50573;51.512;5.386;2023-12-20T22:22:39;167072.97;;;9.58;100.00
64243;BME280;50573;51.512;5.386;2023-12-20T22:32:44;167075.59;;;9.59;100.00
64243;BME280;50573;51.512;5.386;2023-12-20T22:42:47;167072.97;;;9.58;100.00
64243;BME280;50573;51.512;5.386;2023-12-20T22:52:51;167107.34;;;9.71;100.00
64243;BME280;50573;51.512;5.386;2023-12-20T23:02:54;167107.34;;;9.71;100.00
64243;BME280;50573;51.512;5.386;2023-12-20T23:12:58;167086.16;;;9.63;100.00
64243;BME280;50573;51.512;5.386;2023-12-20T23:23:03;167131.22;;;9.80;100.00
64243;BME280;50573;51.512;5.386;2023-12-20T23:33:07;167125.91;;;9.78;100.00
64243;BME280;50573;51.512;5.386;2023-12-20T23:43:10;167117.97;;;9.75;100.00
64243;BME280;50573;51.512;5.386;2023-12-20T23:53:15;167127.25;;;9.78;100.00
